createdAt,value
2022-11-28T00:01:05.142Z,13.2
2022-11-28T00:02:13.558Z,13.2
2022-11-28T00:03:21.903Z,13.2
2022-11-28T00:04:30.340Z,11
2022-11-28T00:05:41.897Z,11
2022-11-28T00:06:47.016Z,11
2022-11-28T00:07:55.620Z,12.3
2022-11-28T00:09:03.890Z,12.3
2022-11-28T00:10:12.222Z,12.3
2022-11-28T00:11:20.887Z,10.7
2022-11-28T00:12:29.097Z,10.7
2022-11-28T00:13:37.420Z,10.7
2022-11-28T00:14:45.952Z,9.7
2022-11-28T00:15:54.298Z,9.7
2022-11-28T00:17:02.620Z,9.7
2022-11-28T00:18:11.160Z,10.9
2022-11-28T00:19:19.481Z,10.9
2022-11-28T00:20:27.817Z,10.9
2022-11-28T00:21:36.365Z,11.4
2022-11-28T00:22:44.689Z,11.4
2022-11-28T00:23:53.030Z,11.4
2022-11-28T00:25:01.570Z,11.6
2022-11-28T00:26:09.902Z,11.6
2022-11-28T00:27:18.356Z,11.6
2022-11-28T00:28:26.780Z,11.2
2022-11-28T00:29:35.105Z,11.2
2022-11-28T00:30:43.440Z,11.2
2022-11-28T00:31:52.051Z,11.5
2022-11-28T00:33:00.307Z,11.5
2022-11-28T00:34:08.651Z,11.5
2022-11-28T00:35:17.189Z,10.5
2022-11-28T00:36:25.518Z,10.5
2022-11-28T00:37:33.845Z,10.5
2022-11-28T00:38:42.389Z,11.7
2022-11-28T00:39:50.727Z,11.7
2022-11-28T00:40:59.059Z,11.7
2022-11-28T00:42:07.595Z,11.1
2022-11-28T00:43:16.045Z,11.1
2022-11-28T00:44:24.255Z,11.1
2022-11-28T00:45:32.829Z,11
2022-11-28T00:46:41.135Z,11
2022-11-28T00:47:49.458Z,11
2022-11-28T00:48:58.000Z,12.5
2022-11-28T00:50:06.330Z,12.5
2022-11-28T00:51:14.658Z,12.5
2022-11-28T00:52:23.210Z,11.7
2022-11-28T00:53:31.533Z,11.7
2022-11-28T00:54:40.163Z,11.7
2022-11-28T00:55:48.398Z,13.5
2022-11-28T00:56:56.732Z,13.5
2022-11-28T00:58:05.066Z,13.5
2022-11-28T00:59:13.717Z,10.9
2022-11-28T01:00:21.927Z,10.9
2022-11-28T01:01:30.337Z,10.9
2022-11-28T01:02:38.844Z,11.6
2022-11-28T01:03:47.125Z,11.6
2022-11-28T01:04:55.460Z,11.6
2022-11-28T01:06:04.009Z,11.6
2022-11-28T01:07:12.363Z,11.6
2022-11-28T01:08:20.669Z,11.6
2022-11-28T01:09:29.201Z,11.4
2022-11-28T01:10:37.536Z,11.4
2022-11-28T01:11:45.875Z,11.4
2022-11-28T01:12:54.407Z,11.4
2022-11-28T01:14:02.753Z,11.4
2022-11-28T01:15:11.224Z,11.4
2022-11-28T01:16:19.657Z,10.6
2022-11-28T01:17:27.960Z,10.6
2022-11-28T01:18:36.292Z,10.6
2022-11-28T01:19:44.813Z,12.1
2022-11-28T01:20:53.158Z,12.1
2022-11-28T01:22:01.480Z,12.1
2022-11-28T01:23:10.015Z,8.6
2022-11-28T01:24:18.350Z,8.6
2022-11-28T01:25:26.674Z,8.6
2022-11-28T01:26:35.227Z,10.1
2022-11-28T01:27:43.557Z,10.1
2022-11-28T01:28:51.883Z,10.1
2022-11-28T01:30:00.409Z,9.1
2022-11-28T01:31:08.866Z,9.1
2022-11-28T01:32:17.076Z,9.1
2022-11-28T01:33:25.623Z,9.7
2022-11-28T01:34:33.950Z,9.7
2022-11-28T01:35:42.298Z,9.7
2022-11-28T01:36:50.855Z,8.9
2022-11-28T01:37:59.191Z,8.9
2022-11-28T01:39:07.518Z,8.9
2022-11-28T01:40:16.048Z,9.9
2022-11-28T01:41:24.378Z,9.9
2022-11-28T01:42:32.716Z,9.9
2022-11-28T01:43:41.260Z,9.6
2022-11-28T01:44:49.591Z,9.6
2022-11-28T01:45:57.917Z,9.6
2022-11-28T01:47:06.623Z,10.2
2022-11-28T01:48:14.793Z,10.2
2022-11-28T01:49:23.125Z,10.2
2022-11-28T01:50:31.662Z,9.6
2022-11-28T01:51:40.001Z,9.6
2022-11-28T01:52:48.329Z,9.6
2022-11-28T01:53:56.860Z,10.4
2022-11-28T01:55:05.190Z,10.4
2022-11-28T01:56:13.535Z,10.4
2022-11-28T01:57:22.091Z,10
2022-11-28T01:58:30.413Z,10
2022-11-28T01:59:38.739Z,10
2022-11-28T02:00:47.320Z,9
2022-11-28T02:01:55.690Z,9
2022-11-28T02:03:04.062Z,9
2022-11-28T02:04:12.482Z,8.5
2022-11-28T02:05:20.804Z,8.5
2022-11-28T02:06:29.142Z,8.5
2022-11-28T02:07:37.740Z,9.6
2022-11-28T02:08:46.011Z,9.6
2022-11-28T02:09:54.351Z,9.6
2022-11-28T02:11:02.898Z,8.4
2022-11-28T02:12:11.222Z,8.4
2022-11-28T02:13:19.557Z,8.4
2022-11-28T02:14:28.097Z,8.4
2022-11-28T02:15:36.424Z,8.4
2022-11-28T02:16:44.803Z,8.4
2022-11-28T02:17:53.308Z,8.6
2022-11-28T02:19:01.751Z,8.6
2022-11-28T02:20:09.962Z,8.6
2022-11-28T02:21:18.531Z,11.1
2022-11-28T02:22:26.844Z,11.1
2022-11-28T02:23:35.178Z,11.1
2022-11-28T02:24:43.921Z,9.5
2022-11-28T02:25:52.041Z,9.5
2022-11-28T02:27:00.375Z,9.5
2022-11-28T02:28:08.916Z,9.7
2022-11-28T02:29:17.249Z,9.7
2022-11-28T02:30:25.577Z,9.7
2022-11-28T02:31:34.188Z,10.2
2022-11-28T02:32:42.447Z,10.2
2022-11-28T02:33:50.779Z,10.2
2022-11-28T02:34:59.449Z,10.2
2022-11-28T02:36:07.684Z,10.2
2022-11-28T02:37:16.032Z,10.2
2022-11-28T02:38:24.559Z,9.3
2022-11-28T02:39:32.904Z,9.3
2022-11-28T02:40:41.245Z,9.3
2022-11-28T02:41:49.795Z,10.4
2022-11-28T02:42:58.149Z,10.4
2022-11-28T02:44:06.499Z,10.4
2022-11-28T02:45:15.047Z,9.7
2022-11-28T02:46:23.424Z,9.7
2022-11-28T02:47:31.716Z,9.7
2022-11-28T02:48:40.258Z,9.8
2022-11-28T02:49:48.622Z,9.8
2022-11-28T02:50:57.069Z,9.8
2022-11-28T02:52:05.487Z,9.2
2022-11-28T02:53:13.823Z,9.2
2022-11-28T02:54:22.183Z,9.2
2022-11-28T02:55:30.730Z,10.5
2022-11-28T02:56:39.052Z,10.5
2022-11-28T02:57:47.392Z,10.5
2022-11-28T02:58:55.923Z,11.9
2022-11-28T03:00:04.277Z,11.9
2022-11-28T03:01:12.682Z,11.9
2022-11-28T03:02:21.251Z,8.8
2022-11-28T03:03:29.485Z,8.8
2022-11-28T03:04:37.819Z,8.8
2022-11-28T03:05:46.353Z,8.4
2022-11-28T03:06:54.799Z,8.4
2022-11-28T03:08:03.092Z,8.4
2022-11-28T03:09:11.560Z,8.6
2022-11-28T03:10:19.895Z,8.6
2022-11-28T03:11:28.237Z,8.6
2022-11-28T03:12:36.798Z,8.3
2022-11-28T03:13:45.133Z,8.3
2022-11-28T03:14:53.465Z,8.3
2022-11-28T03:16:02.056Z,8
2022-11-28T03:17:10.367Z,8
2022-11-28T03:18:18.706Z,8
2022-11-28T03:19:27.235Z,7.3
2022-11-28T03:20:35.567Z,7.3
2022-11-28T03:21:43.901Z,7.3
2022-11-28T03:22:52.561Z,8.9
2022-11-28T03:24:00.776Z,8.9
2022-11-28T03:25:09.111Z,8.9
2022-11-28T03:26:17.637Z,8.4
2022-11-28T03:27:25.995Z,8.4
2022-11-28T03:28:36.173Z,8.4
2022-11-28T03:29:42.859Z,8.5
2022-11-28T03:30:51.195Z,8.5
2022-11-28T03:31:59.562Z,8.5
2022-11-28T03:33:08.065Z,7.8
2022-11-28T03:34:16.390Z,7.8
2022-11-28T03:35:24.719Z,7.8
2022-11-28T03:36:33.249Z,8.7
2022-11-28T03:37:41.595Z,8.7
2022-11-28T03:38:50.041Z,8.7
2022-11-28T03:39:58.471Z,7.5
2022-11-28T03:41:06.796Z,7.5
2022-11-28T03:42:15.137Z,7.5
2022-11-28T03:43:23.676Z,8.8
2022-11-28T03:44:32.032Z,8.8
2022-11-28T03:45:40.368Z,8.8
2022-11-28T03:46:49.080Z,9.3
2022-11-28T03:47:57.255Z,9.3
2022-11-28T03:49:05.582Z,9.3
2022-11-28T03:50:14.125Z,8.7
2022-11-28T03:51:22.445Z,8.7
2022-11-28T03:52:30.780Z,8.7
2022-11-28T03:53:39.323Z,8
2022-11-28T03:54:47.764Z,8
2022-11-28T03:55:55.998Z,8
2022-11-28T03:57:04.520Z,8.5
2022-11-28T03:58:12.845Z,8.5
2022-11-28T03:59:21.185Z,8.5
2022-11-28T04:00:29.728Z,8.5
2022-11-28T04:01:38.194Z,8.5
2022-11-28T04:02:46.512Z,8.5
2022-11-28T04:03:54.984Z,7.1
2022-11-28T04:05:03.337Z,7.1
2022-11-28T04:06:11.668Z,7.1
2022-11-28T04:07:20.275Z,8.3
2022-11-28T04:08:28.561Z,8.3
2022-11-28T04:09:36.892Z,8.3
2022-11-28T04:10:45.550Z,7.9
2022-11-28T04:11:53.765Z,7.9
2022-11-28T04:13:02.109Z,7.9
2022-11-28T04:14:10.648Z,8
2022-11-28T04:15:18.973Z,8
2022-11-28T04:16:27.388Z,8
2022-11-28T04:17:35.853Z,8.9
2022-11-28T04:18:44.201Z,8.9
2022-11-28T04:19:52.522Z,8.9
2022-11-28T04:21:01.064Z,8.6
2022-11-28T04:22:09.397Z,8.6
2022-11-28T04:23:17.745Z,8.6
2022-11-28T04:24:26.288Z,7.1
2022-11-28T04:25:34.636Z,7.1
2022-11-28T04:26:43.099Z,7.1
2022-11-28T04:27:51.530Z,8.5
2022-11-28T04:28:59.868Z,8.5
2022-11-28T04:30:08.207Z,8.5
2022-11-28T04:31:16.787Z,7.8
2022-11-28T04:32:25.075Z,7.8
2022-11-28T04:33:33.399Z,7.8
2022-11-28T04:34:42.085Z,8.8
2022-11-28T04:35:50.312Z,8.8
2022-11-28T04:36:58.643Z,8.8
2022-11-28T04:38:07.192Z,8.2
2022-11-28T04:39:15.528Z,8.2
2022-11-28T04:40:23.863Z,8.2
2022-11-28T04:41:32.419Z,9.8
2022-11-28T04:42:40.877Z,9.8
2022-11-28T04:43:49.092Z,9.8
2022-11-28T04:44:57.687Z,9.6
2022-11-28T04:46:06.190Z,9.6
2022-11-28T04:47:14.412Z,9.6
2022-11-28T04:48:22.951Z,7.7
2022-11-28T04:49:31.284Z,7.7
2022-11-28T04:50:39.624Z,7.7
2022-11-28T04:51:48.898Z,11.7
2022-11-28T04:52:57.243Z,11.7
2022-11-28T04:54:05.580Z,11.7
2022-11-28T04:55:14.120Z,18.1
2022-11-28T04:56:22.448Z,18.1
2022-11-28T04:57:31.962Z,18.1
2022-11-28T04:58:40.616Z,7.2
2022-11-28T04:59:50.945Z,7.2
2022-11-28T05:00:59.334Z,7.2
2022-11-28T05:02:07.852Z,10
2022-11-28T05:03:16.158Z,10
2022-11-28T05:04:24.480Z,10
2022-11-28T05:05:33.023Z,7.3
2022-11-28T05:06:41.371Z,7.3
2022-11-28T05:07:49.735Z,7.3
2022-11-28T05:08:58.251Z,8.5
2022-11-28T05:10:06.580Z,8.5
2022-11-28T05:11:14.907Z,8.5
2022-11-28T05:12:23.459Z,8.1
2022-11-28T05:13:31.795Z,8.1
2022-11-28T05:14:40.529Z,8.1
2022-11-28T05:15:48.678Z,7.7
2022-11-28T05:16:57.025Z,7.7
2022-11-28T05:18:05.360Z,7.7
2022-11-28T05:19:13.939Z,6.6
2022-11-28T05:20:22.274Z,6.6
2022-11-28T05:21:30.611Z,6.6
2022-11-28T05:22:39.156Z,7.4
2022-11-28T05:23:47.484Z,7.4
2022-11-28T05:24:55.849Z,7.4
2022-11-28T05:26:04.404Z,7
2022-11-28T05:27:12.759Z,7
2022-11-28T05:28:21.094Z,7
2022-11-28T05:29:29.643Z,8.3
2022-11-28T05:30:38.093Z,8.3
2022-11-28T05:31:46.388Z,8.3
2022-11-28T05:32:54.877Z,8.1
2022-11-28T05:34:03.231Z,8.1
2022-11-28T05:35:11.577Z,8.1
2022-11-28T05:36:20.124Z,8.1
2022-11-28T05:37:28.462Z,8.1
2022-11-28T05:38:36.811Z,8.1
2022-11-28T05:39:45.446Z,8.3
2022-11-28T05:40:53.702Z,8.3
2022-11-28T05:42:02.048Z,8.3
2022-11-28T05:43:10.592Z,8.9
2022-11-28T05:44:21.643Z,8.9
2022-11-28T05:45:27.263Z,8.9
2022-11-28T05:46:35.819Z,8.3
2022-11-28T05:47:44.122Z,8.3
2022-11-28T05:48:52.467Z,8.3
2022-11-28T05:50:01.008Z,12.8
2022-11-28T05:51:09.342Z,12.8
2022-11-28T05:52:17.673Z,12.8
2022-11-28T05:53:26.206Z,18.799999
2022-11-28T05:54:34.530Z,18.799999
2022-11-28T05:55:42.864Z,18.799999
2022-11-28T05:56:51.395Z,14.1
2022-11-28T05:57:59.735Z,14.1
2022-11-28T05:59:08.066Z,14.1
2022-11-28T06:00:16.596Z,19.799999
2022-11-28T06:01:24.935Z,19.799999
2022-11-28T06:02:33.452Z,19.799999
2022-11-28T06:03:41.803Z,13.4
2022-11-28T06:04:50.192Z,13.4
2022-11-28T06:05:58.483Z,13.4
2022-11-28T06:07:07.025Z,8.3
2022-11-28T06:08:15.352Z,8.3
2022-11-28T06:09:25.953Z,8.3
2022-11-28T06:10:32.210Z,8.5
2022-11-28T06:11:40.542Z,8.5
2022-11-28T06:12:48.897Z,8.5
2022-11-28T06:13:57.428Z,8.4
2022-11-28T06:15:05.769Z,8.4
2022-11-28T06:16:14.160Z,8.4
2022-11-28T06:17:22.660Z,8.8
2022-11-28T06:18:31.128Z,8.8
2022-11-28T06:19:39.343Z,8.8
2022-11-28T06:20:47.887Z,8.2
2022-11-28T06:21:56.239Z,8.2
2022-11-28T06:23:04.586Z,8.2
2022-11-28T06:24:13.128Z,9.1
2022-11-28T06:25:21.455Z,9.1
2022-11-28T06:26:29.784Z,9.1
2022-11-28T06:27:38.324Z,9.6
2022-11-28T06:28:46.654Z,9.6
2022-11-28T06:29:54.981Z,9.6
2022-11-28T06:31:03.519Z,11
2022-11-28T06:32:11.946Z,11
2022-11-28T06:33:20.182Z,11
2022-11-28T06:34:28.839Z,10.6
2022-11-28T06:35:37.054Z,10.6
2022-11-28T06:36:45.398Z,10.6
2022-11-28T06:37:53.949Z,10.2
2022-11-28T06:39:02.285Z,10.2
2022-11-28T06:40:10.615Z,10.2
2022-11-28T06:41:19.144Z,10.4
2022-11-28T06:42:27.479Z,10.4
2022-11-28T06:43:35.817Z,10.4
2022-11-28T06:44:44.349Z,11
2022-11-28T06:45:52.733Z,11
2022-11-28T06:47:01.037Z,11
2022-11-28T06:48:09.590Z,10.5
2022-11-28T06:49:17.927Z,10.5
2022-11-28T06:50:26.368Z,10.5
2022-11-28T06:51:34.841Z,12.4
2022-11-28T06:52:43.122Z,12.4
2022-11-28T06:54:42.291Z,0
2022-11-28T06:55:50.613Z,0
2022-11-28T06:56:58.958Z,0
2022-11-28T06:58:07.497Z,8.5
2022-11-28T06:59:15.861Z,8.5
2022-11-28T07:00:24.199Z,8.5
2022-11-28T07:01:32.803Z,9.9
2022-11-28T07:02:41.219Z,9.9
2022-11-28T07:03:49.477Z,9.9
2022-11-28T07:04:57.992Z,11.6
2022-11-28T07:06:06.441Z,11.6
2022-11-28T07:07:16.600Z,11.6
2022-11-28T07:08:23.269Z,12.9
2022-11-28T07:09:31.517Z,12.9
2022-11-28T07:10:39.841Z,12.9
2022-11-28T07:11:48.381Z,14.1
2022-11-28T07:12:57.471Z,14.1
2022-11-28T07:14:05.045Z,14.1
2022-11-28T07:15:13.578Z,13.9
2022-11-28T07:16:21.981Z,13.9
2022-11-28T07:17:30.280Z,13.9
2022-11-28T07:18:38.820Z,12.9
2022-11-28T07:19:51.972Z,12.9
2022-11-28T07:20:56.181Z,12.9
2022-11-28T07:22:04.838Z,14.4
2022-11-28T07:23:13.050Z,14.4
2022-11-28T07:24:21.396Z,14.4
2022-11-28T07:26:03.135Z,0
2022-11-28T07:27:11.471Z,0
2022-11-28T07:28:23.205Z,0
2022-11-28T07:29:28.338Z,15.5
2022-11-28T07:30:36.675Z,15.5
2022-11-28T07:31:45.017Z,15.5
2022-11-28T07:32:53.569Z,17.200001
2022-11-28T07:34:01.941Z,17.200001
2022-11-28T07:35:10.276Z,17.200001
2022-11-28T07:36:18.812Z,15.3
2022-11-28T07:37:27.279Z,15.3
2022-11-28T07:38:35.489Z,15.3
2022-11-28T07:39:44.281Z,14.3
2022-11-28T07:40:52.359Z,14.3
2022-11-28T07:42:00.693Z,14.3
2022-11-28T07:43:09.673Z,15.9
2022-11-28T07:44:18.010Z,15.9
2022-11-28T07:45:36.941Z,15.9
2022-11-28T07:46:34.906Z,16.5
2022-11-28T07:47:43.220Z,16.5
2022-11-28T07:48:51.551Z,16.5
2022-11-28T07:50:00.091Z,15.1
2022-11-28T07:51:08.440Z,15.1
2022-11-28T07:52:16.786Z,15.1
2022-11-28T07:53:25.351Z,13.4
2022-11-28T07:54:33.661Z,13.4
2022-11-28T07:55:41.988Z,13.4
2022-11-28T07:57:12.159Z,15
2022-11-28T07:57:58.887Z,15
2022-11-28T07:59:07.235Z,15
2022-11-28T08:00:15.769Z,16.4
2022-11-28T08:01:24.110Z,16.4
2022-11-28T08:02:32.587Z,16.4
2022-11-28T08:03:41.018Z,14.8
2022-11-28T08:04:52.805Z,14.8
2022-11-28T08:06:01.452Z,14.8
2022-11-28T08:07:06.219Z,14
2022-11-28T08:08:14.583Z,14
2022-11-28T08:09:22.959Z,14
2022-11-28T08:10:31.485Z,16
2022-11-28T08:11:39.819Z,16
2022-11-28T08:12:48.163Z,16
2022-11-28T08:13:58.019Z,13.4
2022-11-28T08:15:05.054Z,13.4
2022-11-28T08:16:13.434Z,13.4
2022-11-28T08:17:21.958Z,29.5
2022-11-28T08:18:30.298Z,29.5
2022-11-28T08:19:38.642Z,29.5
2022-11-28T08:20:47.182Z,51
2022-11-28T08:21:55.543Z,51
2022-11-28T08:23:03.908Z,51
2022-11-28T08:24:12.472Z,11.8
2022-11-28T08:25:20.820Z,11.8
2022-11-28T08:26:30.775Z,11.8
2022-11-28T08:27:37.682Z,12.3
2022-11-28T08:28:46.018Z,12.3
2022-11-28T08:29:54.603Z,12.3
2022-11-28T08:31:02.954Z,11.6
2022-11-28T08:32:11.255Z,11.6
2022-11-28T08:33:19.589Z,11.6
2022-11-28T08:34:28.142Z,13.1
2022-11-28T08:35:36.480Z,13.1
2022-11-28T08:36:44.808Z,13.1
2022-11-28T08:37:54.776Z,15.1
2022-11-28T08:39:23.792Z,15.1
2022-11-28T08:40:10.041Z,15.1
2022-11-28T08:41:18.609Z,16.4
2022-11-28T08:42:26.934Z,16.4
2022-11-28T08:43:35.272Z,16.4
2022-11-28T08:44:43.802Z,57.299999
2022-11-28T08:45:52.234Z,57.299999
2022-11-28T08:47:00.652Z,57.299999
2022-11-28T08:48:09.075Z,33.700001
2022-11-28T08:49:17.421Z,33.700001
2022-11-28T08:50:25.785Z,33.700001
2022-11-28T08:51:34.318Z,22.700001
2022-11-28T08:52:42.686Z,22.700001
2022-11-28T08:53:53.727Z,22.700001
2022-11-28T08:54:59.591Z,19.4
2022-11-28T08:56:07.940Z,19.4
2022-11-28T08:57:16.537Z,19.4
2022-11-28T08:58:24.836Z,8.8
2022-11-28T08:59:33.178Z,8.8
2022-11-28T09:00:41.514Z,8.8
2022-11-28T09:01:50.113Z,9.4
2022-11-28T09:02:58.414Z,9.4
2022-11-28T09:04:06.848Z,9.4
2022-11-28T09:05:15.340Z,10.9
2022-11-28T09:06:23.698Z,10.9
2022-11-28T09:07:32.086Z,10.9
2022-11-28T09:08:40.593Z,9.6
2022-11-28T09:09:49.246Z,9.6
2022-11-28T09:10:57.273Z,9.6
2022-11-28T09:12:05.826Z,11.4
2022-11-28T09:13:14.205Z,11.4
2022-11-28T09:14:22.511Z,11.4
2022-11-28T09:15:31.065Z,15.4
2022-11-28T09:16:39.442Z,15.4
2022-11-28T09:17:47.741Z,15.4
2022-11-28T09:18:56.287Z,14
2022-11-28T09:20:04.622Z,14
2022-11-28T09:21:12.983Z,14
2022-11-28T09:22:21.539Z,12
2022-11-28T09:23:29.890Z,12
2022-11-28T09:24:38.215Z,12
2022-11-28T09:25:46.767Z,13.1
2022-11-28T09:26:55.119Z,13.1
2022-11-28T09:28:03.446Z,13.1
2022-11-28T09:29:12.019Z,12.9
2022-11-28T09:30:20.335Z,12.9
2022-11-28T09:31:28.667Z,12.9
2022-11-28T09:32:37.230Z,13.9
2022-11-28T09:33:45.542Z,13.9
2022-11-28T09:34:53.893Z,13.9
2022-11-28T09:36:02.446Z,14.1
2022-11-28T09:37:10.788Z,14.1
2022-11-28T09:38:19.142Z,14.1
2022-11-28T09:39:32.702Z,15.3
2022-11-28T09:40:36.012Z,15.3
2022-11-28T09:41:44.342Z,15.3
2022-11-28T09:42:52.896Z,14.8
2022-11-28T09:44:01.226Z,14.8
2022-11-28T09:45:09.601Z,14.8
2022-11-28T09:46:18.181Z,13.5
2022-11-28T09:47:26.437Z,13.5
2022-11-28T09:48:34.788Z,13.5
2022-11-28T09:49:43.602Z,12.9
2022-11-28T09:50:51.675Z,12.9
2022-11-28T09:52:00.009Z,12.9
2022-11-28T09:53:08.567Z,13.8
2022-11-28T09:54:16.902Z,13.8
2022-11-28T09:55:25.223Z,13.8
2022-11-28T09:56:33.772Z,14.5
2022-11-28T09:57:42.110Z,14.5
2022-11-28T09:58:50.445Z,14.5
2022-11-28T09:59:58.986Z,13.9
2022-11-28T10:01:07.354Z,13.9
2022-11-28T10:02:15.654Z,13.9
2022-11-28T10:03:24.206Z,18.5
2022-11-28T10:04:32.563Z,18.5
2022-11-28T10:05:40.875Z,18.5
2022-11-28T10:06:49.431Z,15
2022-11-28T10:07:57.814Z,15
2022-11-28T10:09:06.127Z,15
2022-11-28T10:10:14.662Z,13.5
2022-11-28T10:11:22.999Z,13.5
2022-11-28T10:12:31.345Z,13.5
2022-11-28T10:14:00.194Z,12.2
2022-11-28T10:14:48.215Z,12.2
2022-11-28T10:15:56.561Z,12.2
2022-11-28T10:17:05.160Z,9.9
2022-11-28T10:18:13.466Z,9.9
2022-11-28T10:19:46.468Z,9.9
2022-11-28T10:20:30.365Z,9.1
2022-11-28T10:21:38.718Z,9.1
2022-11-28T10:22:47.070Z,9.1
2022-11-28T10:23:55.619Z,7.1
2022-11-28T10:25:03.957Z,7.1
2022-11-28T10:26:12.289Z,7.1
2022-11-28T10:27:25.503Z,7.8
2022-11-28T10:28:29.196Z,7.8
2022-11-28T10:29:37.538Z,7.8
2022-11-28T10:30:46.114Z,9.1
2022-11-28T10:31:54.397Z,9.1
2022-11-28T10:33:02.778Z,9.1
2022-11-28T10:34:11.299Z,9.9
2022-11-28T10:35:21.757Z,9.9
2022-11-28T10:36:27.988Z,9.9
2022-11-28T10:37:36.531Z,10.1
2022-11-28T10:38:44.871Z,10.1
2022-11-28T10:39:53.212Z,10.1
2022-11-28T10:41:01.758Z,6.6
2022-11-28T10:42:10.116Z,6.6
2022-11-28T10:43:18.459Z,6.6
2022-11-28T10:44:27.021Z,8.3
2022-11-28T10:45:35.362Z,8.3
2022-11-28T10:46:43.846Z,8.3
2022-11-28T10:47:52.270Z,6.8
2022-11-28T10:49:00.635Z,6.8
2022-11-28T10:50:08.940Z,6.8
2022-11-28T10:51:17.490Z,6.7
2022-11-28T10:52:25.853Z,6.7
2022-11-28T10:53:34.191Z,6.7
2022-11-28T10:54:42.751Z,11.5
2022-11-28T10:55:51.079Z,11.5
2022-11-28T10:56:59.425Z,11.5
2022-11-28T10:58:07.991Z,8.7
2022-11-28T10:59:16.342Z,8.7
2022-11-28T11:00:24.701Z,8.7
2022-11-28T11:01:33.298Z,8.6
2022-11-28T11:02:41.583Z,8.6
2022-11-28T11:03:49.925Z,8.6
2022-11-28T11:04:58.688Z,7.6
2022-11-28T11:06:06.820Z,7.6
2022-11-28T11:07:20.080Z,7.6
2022-11-28T11:08:23.770Z,7.7
2022-11-28T11:09:32.018Z,7.7
2022-11-28T11:10:40.352Z,7.7
2022-11-28T11:11:48.898Z,7.5
2022-11-28T11:12:57.238Z,7.5
2022-11-28T11:14:05.569Z,7.5
2022-11-28T11:15:14.104Z,10.7
2022-11-28T11:16:22.494Z,10.7
2022-11-28T11:17:35.546Z,10.7
2022-11-28T11:18:39.329Z,8.3
2022-11-28T11:19:47.672Z,8.3
2022-11-28T11:20:56.036Z,8.3
2022-11-28T11:22:04.538Z,9.6
2022-11-28T11:23:13.370Z,9.6
2022-11-28T11:24:22.241Z,9.6
2022-11-28T11:25:31.114Z,11.4
2022-11-28T11:26:39.453Z,11.4
2022-11-28T11:27:47.794Z,11.4
2022-11-28T11:28:56.705Z,11.2
2022-11-28T11:30:05.031Z,11.2
2022-11-28T11:31:13.435Z,11.2
2022-11-28T11:32:21.924Z,8.9
2022-11-28T11:33:30.256Z,8.9
2022-11-28T11:34:38.590Z,8.9
2022-11-28T11:35:47.129Z,9.6
2022-11-28T11:36:55.521Z,9.6
2022-11-28T11:38:03.835Z,9.6
2022-11-28T11:39:12.385Z,5.8
2022-11-28T11:40:20.734Z,5.8
2022-11-28T11:41:29.056Z,5.8
2022-11-28T11:42:37.606Z,6.1
2022-11-28T11:43:45.944Z,6.1
2022-11-28T11:44:54.316Z,6.1
2022-11-28T11:46:02.914Z,6.7
2022-11-28T11:47:11.191Z,6.7
2022-11-28T11:48:19.543Z,6.7
2022-11-28T11:49:28.087Z,6.9
2022-11-28T11:50:36.423Z,6.9
2022-11-28T11:51:44.753Z,6.9
2022-11-28T11:52:53.348Z,6.7
2022-11-28T11:54:01.641Z,6.7
2022-11-28T11:55:09.974Z,6.7
2022-11-28T11:56:18.535Z,6.6
2022-11-28T11:57:34.670Z,6.6
2022-11-28T11:58:35.220Z,6.6
2022-11-28T11:59:44.133Z,6.9
2022-11-28T12:00:52.104Z,6.9
2022-11-28T12:02:00.440Z,6.9
2022-11-28T12:03:09.059Z,6.8
2022-11-28T12:04:37.382Z,6.8
2022-11-28T12:05:25.657Z,6.8
2022-11-28T12:06:34.201Z,7
2022-11-28T12:07:42.591Z,7
2022-11-28T12:08:50.909Z,7
2022-11-28T12:10:03.167Z,7.3
2022-11-28T12:11:07.761Z,7.3
2022-11-28T12:12:16.102Z,7.3
2022-11-28T12:13:24.657Z,7.1
2022-11-28T12:14:32.997Z,7.1
2022-11-28T12:15:41.454Z,7.1
2022-11-28T12:16:49.879Z,6.5
2022-11-28T12:17:59.132Z,6.5
2022-11-28T12:19:06.565Z,6.5
2022-11-28T12:20:15.117Z,6
2022-11-28T12:21:23.448Z,6
2022-11-28T12:22:31.796Z,6
2022-11-28T12:23:40.339Z,7.6
2022-11-28T12:24:48.857Z,7.6
2022-11-28T12:25:57.012Z,7.6
2022-11-28T12:27:05.551Z,6.7
2022-11-28T12:28:13.894Z,6.7
2022-11-28T12:29:22.264Z,6.7
2022-11-28T12:30:30.785Z,7.8
2022-11-28T12:31:39.166Z,7.8
2022-11-28T12:32:47.468Z,7.8
2022-11-28T12:33:56.009Z,6.9
2022-11-28T12:35:04.338Z,6.9
2022-11-28T12:36:12.675Z,6.9
2022-11-28T12:37:21.236Z,9.2
2022-11-28T12:38:29.564Z,9.2
2022-11-28T12:39:37.909Z,9.2
2022-11-28T12:40:46.548Z,7.8
2022-11-28T12:41:54.790Z,7.8
2022-11-28T12:43:03.130Z,7.8
2022-11-28T12:44:11.672Z,33.400002
2022-11-28T12:45:20.009Z,33.400002
2022-11-28T12:46:28.434Z,33.400002
2022-11-28T12:47:36.891Z,9
2022-11-28T12:48:48.773Z,9
2022-11-28T12:49:53.554Z,9
2022-11-28T12:51:02.091Z,6.4
2022-11-28T12:52:10.428Z,6.4
2022-11-28T12:53:18.784Z,6.4
2022-11-28T12:54:27.334Z,6.3
2022-11-28T12:55:35.664Z,6.3
2022-11-28T12:56:44.032Z,6.3
2022-11-28T12:57:52.550Z,7.3
2022-11-28T12:59:00.906Z,7.3
2022-11-28T13:00:09.506Z,7.3
2022-11-28T13:01:17.876Z,6.5
2022-11-28T13:02:26.338Z,6.5
2022-11-28T13:03:34.540Z,6.5
2022-11-28T13:04:43.233Z,8
2022-11-28T13:05:51.369Z,8
2022-11-28T13:06:59.704Z,8
2022-11-28T13:08:08.254Z,11.5
2022-11-28T13:09:16.586Z,11.5
2022-11-28T13:10:24.918Z,11.5
2022-11-28T13:11:33.467Z,10.4
2022-11-28T13:12:41.842Z,10.4
2022-11-28T13:13:50.153Z,10.4
2022-11-28T13:14:58.701Z,12.6
2022-11-28T13:16:07.077Z,12.6
2022-11-28T13:17:15.381Z,12.6
2022-11-28T13:18:23.942Z,8.7
2022-11-28T13:19:32.265Z,8.7
2022-11-28T13:20:40.604Z,8.7
2022-11-28T13:21:49.147Z,10.8
2022-11-28T13:22:57.527Z,10.8
2022-11-28T13:24:07.444Z,10.8
2022-11-28T13:25:14.511Z,10.1
2022-11-28T13:26:22.877Z,10.1
2022-11-28T13:27:31.264Z,10.1
2022-11-28T13:28:39.859Z,8.5
2022-11-28T13:29:48.200Z,8.5
2022-11-28T13:30:56.581Z,8.5
2022-11-28T13:32:05.125Z,21.700001
2022-11-28T13:33:13.492Z,21.700001
2022-11-28T13:34:21.894Z,21.700001
2022-11-28T13:35:30.452Z,15.9
2022-11-28T13:39:11.597Z,16.5
2022-11-28T13:40:04.090Z,16.5
2022-11-28T13:41:28.693Z,16.5
2022-11-28T13:42:52.697Z,20.799999
2022-11-28T13:43:29.401Z,20.799999
2022-11-28T13:44:37.845Z,20.799999
2022-11-28T13:45:46.398Z,18.9
2022-11-28T13:46:56.708Z,18.9
2022-11-28T13:48:03.106Z,18.9
2022-11-28T13:49:14.688Z,12.4
2022-11-28T13:50:20.068Z,12.4
2022-11-28T13:51:31.372Z,12.4
2022-11-28T13:52:37.001Z,11.6
2022-11-28T13:53:45.369Z,11.6
2022-11-28T13:54:53.717Z,11.6
2022-11-28T13:56:02.296Z,9.1
2022-11-28T13:57:10.676Z,9.1
2022-11-28T13:58:19.051Z,9.1
2022-11-28T13:59:27.607Z,8.4
2022-11-28T14:00:36.060Z,8.4
2022-11-28T14:01:44.617Z,8.4
2022-11-28T14:02:53.119Z,10.4
2022-11-28T14:04:01.455Z,10.4
2022-11-28T14:05:09.739Z,10.4
2022-11-28T14:06:18.326Z,9.3
2022-11-28T14:07:26.783Z,9.3
2022-11-28T14:08:35.066Z,9.3
2022-11-28T14:09:43.614Z,11.8
2022-11-28T14:10:52.005Z,11.8
2022-11-28T14:12:00.368Z,11.8
2022-11-28T14:13:09.728Z,9.9
2022-11-28T14:14:17.314Z,9.9
2022-11-28T14:15:25.663Z,9.9
2022-11-28T14:16:34.330Z,10.1
2022-11-28T14:17:42.601Z,10.1
2022-11-28T14:18:58.564Z,10.1
2022-11-28T14:19:59.513Z,10.9
2022-11-28T14:21:07.888Z,10.9
2022-11-28T14:22:16.250Z,10.9
2022-11-28T14:23:24.852Z,10.3
2022-11-28T14:24:33.213Z,10.3
2022-11-28T14:25:41.575Z,10.3
2022-11-28T14:26:50.146Z,10.9
2022-11-28T14:27:58.521Z,10.9
2022-11-28T14:29:06.894Z,10.9
2022-11-28T14:30:15.452Z,11.4
2022-11-28T14:31:23.855Z,11.4
2022-11-28T15:03:55.362Z,0
2022-11-28T15:05:03.671Z,0
2022-11-28T15:06:12.005Z,0
2022-11-28T15:07:20.585Z,10.2
2022-11-28T15:08:28.917Z,10.2
2022-11-28T15:09:37.269Z,10.2
2022-11-28T15:10:45.862Z,12.1
2022-11-28T15:11:54.234Z,12.1
2022-11-28T15:13:02.603Z,12.1
2022-11-28T15:14:11.207Z,11.7
2022-11-28T15:15:19.544Z,11.7
2022-11-28T15:16:27.960Z,11.7
2022-11-28T15:17:36.496Z,10.8
2022-11-28T15:18:44.852Z,10.8
2022-11-28T15:19:53.251Z,10.8
2022-11-28T15:21:01.827Z,10.3
2022-11-28T15:22:10.215Z,10.3
2022-11-28T15:23:18.570Z,10.3
2022-11-28T15:24:27.136Z,10.8
2022-11-28T15:25:35.533Z,10.8
2022-11-28T15:26:43.886Z,10.8
2022-11-28T15:27:52.495Z,11.6
2022-11-28T15:29:00.858Z,11.6
2022-11-28T15:30:09.225Z,11.6
2022-11-28T15:31:17.817Z,11.1
2022-11-28T15:32:26.136Z,11.1
2022-11-28T15:33:34.521Z,11.1
2022-11-28T15:34:43.272Z,10.6
2022-11-28T15:35:51.451Z,10.6
2022-11-28T15:36:59.811Z,10.6
2022-11-28T15:38:08.421Z,11.8
2022-11-28T15:39:16.787Z,11.8
2022-11-28T15:40:25.158Z,11.8
2022-11-28T15:41:33.716Z,12.9
2022-11-28T15:42:42.092Z,12.9
2022-11-28T15:43:50.453Z,12.9
2022-11-28T15:44:59.045Z,13.3
2022-11-28T15:46:07.447Z,13.3
2022-11-28T15:47:15.788Z,13.3
2022-11-28T15:48:24.377Z,16.6
2022-11-28T15:49:32.764Z,16.6
2022-11-28T15:50:41.147Z,16.6
2022-11-28T15:51:49.756Z,14.8
2022-11-28T15:52:58.150Z,14.8
2022-11-28T15:54:09.491Z,14.8
2022-11-28T15:55:15.063Z,15.6
2022-11-28T15:56:23.462Z,15.6
2022-11-28T15:57:31.864Z,15.6
2022-11-28T15:58:40.413Z,12.1
2022-11-28T15:59:48.795Z,12.1
2022-11-28T16:00:57.165Z,12.1
2022-11-28T16:02:05.755Z,10.7